< Cyclone 202108 2021 Season Cyclone 202112 >
Cyclone 202110 (noname)
General InformationTrack Information on Google MapsDetailed Wind Information || ResourceGoogle EarthGE AnimationAtom FeedGeoJSON
Year Month Day Hour Lat. Long. Pressure (hPa) Wind (kt) Class Image Chart
2021 1 19 12 -13.0 106.7 1005 15 2 Image --
2021 1 19 18 -12.8 104.5 1004 20 2 Image --
2021 1 20 00 -12.4 102.6 1004 25 2 Image --
2021 1 20 06 -12.5 100.9 1004 30 2 Image --
2021 1 20 12 -12.5 99.2 1002 35 3 Image --
2021 1 20 18 -12.3 98.1 1000 35 3 Image --
2021 1 21 00 -12.2 97.8 995 40 3 Image --
2021 1 21 06 -12.5 97.3 995 40 3 Image --
2021 1 21 12 -12.6 97.4 994 40 3 Image --
2021 1 21 18 -12.8 97.6 994 40 3 Image --
2021 1 22 00 -13.0 97.5 994 40 3 Image --
2021 1 22 06 -13.1 97.4 994 40 3 Image --
2021 1 22 12 -13.2 97.5 996 35 3 Image --
2021 1 22 18 -13.7 97.7 996 35 3 Image --
2021 1 23 00 -14.1 97.5 996 35 3 Image --
2021 1 23 06 -14.2 97.6 996 30 2 Image --
2021 1 23 12 -14.9 97.7 996 30 2 Image --
2021 1 23 18 -15.5 97.8 996 30 2 Image --
2021 1 24 00 -15.7 97.5 996 30 2 Image --
2021 1 24 06 -16.0 97.3 996 30 2 Image --
2021 1 24 12 -16.4 96.8 996 30 2 Image --
2021 1 24 18 -16.8 96.5 998 30 2 Image --
2021 1 25 00 -17.1 96.1 998 30 2 Image --
2021 1 25 06 -17.3 95.9 998 25 2 Image --
2021 1 25 12 -17.6 95.7 998 25 2 Image --
2021 1 25 18 -17.9 95.4 998 30 2 Image --
2021 1 26 00 -18.3 95.1 998 35 3 Image --
2021 1 26 06 -18.9 94.6 998 35 3 Image --
2021 1 26 12 -19.2 94.2 998 35 3 Image --
2021 1 26 18 -19.1 93.2 998 35 3 Image --
2021 1 27 00 -19.1 92.1 998 35 3 Image --
2021 1 27 06 -19.3 91.3 998 35 3 Image --
2021 1 27 12 -19.3 90.4 998 35 3 Image --
2021 1 27 18 -19.1 89.0 998 35 3 Image --
< Cyclone 202108 2021 Season Cyclone 202112 >

Help